Time;durP1;ratioP1;P1;durP2;ratioP2;P2;SDS_P1;SDS_P2;PMS_P1;PMS_P2;Temp;Humidity;BMP_temperature;BMP_pressure;BME280_temperature;BME280_humidity;BME280_pressure;Samples;Min_cycle;Max_cycle;Signal;HPM_P1;HPM_P2
2022/09/02 00:00:31;;;;;;;3.65;0.57;;;18.40;60.20;;;;;;5032860;28;20096;-58
2022/09/02 00:02:56;;;;;;;3.08;0.50;;;18.40;60.10;;;;;;5033362;28;20025;-58
2022/09/02 00:05:22;;;;;;;1.58;0.43;;;18.30;60.50;;;;;;5032814;28;20018;-58
2022/09/02 00:07:48;;;;;;;1.20;0.40;;;18.30;60.50;;;;;;5020760;28;20080;-57
2022/09/02 00:10:13;;;;;;;2.70;0.60;;;18.20;60.60;;;;;;5033024;28;20021;-58
2022/09/02 00:12:39;;;;;;;2.08;0.50;;;18.20;61.10;;;;;;5033104;28;20032;-57
2022/09/02 00:15:05;;;;;;;5.53;0.60;;;18.20;61.10;;;;;;5032705;28;20025;-58
2022/09/02 00:17:30;;;;;;;2.13;0.60;;;18.20;61.30;;;;;;5032531;28;20061;-58
2022/09/02 00:19:56;;;;;;;3.35;0.40;;;18.10;61.20;;;;;;5032434;28;20053;-58
2022/09/02 00:22:22;;;;;;;3.20;0.82;;;18.10;61.20;;;;;;5031754;28;20025;-58
2022/09/02 00:24:48;;;;;;;2.28;0.50;;;18.10;61.50;;;;;;5032489;28;20025;-58
2022/09/02 00:27:13;;;;;;;2.33;0.90;;;18.10;62.20;;;;;;5032569;28;20026;-58
2022/09/02 00:29:39;;;;;;;1.77;0.50;;;18.00;61.80;;;;;;5032459;28;20041;-58
2022/09/02 00:32:04;;;;;;;3.85;0.70;;;18.00;61.80;;;;;;5031295;28;20461;-58
2022/09/02 00:34:30;;;;;;;2.25;0.50;;;17.90;61.90;;;;;;5030792;28;20068;-58
2022/09/02 00:36:56;;;;;;;2.80;0.40;;;17.90;61.90;;;;;;5032530;28;20014;-57
2022/09/02 00:39:21;;;;;;;2.40;0.60;;;17.90;62.00;;;;;;5031947;28;20034;-57
2022/09/02 00:41:48;;;;;;;1.33;0.43;;;17.90;62.30;;;;;;5027736;28;20145;-58
2022/09/02 00:44:15;;;;;;;1.40;0.40;;;17.80;62.40;;;;;;5031035;28;20009;-58
2022/09/02 00:46:41;;;;;;;1.63;0.50;;;17.80;62.40;;;;;;5033099;28;20036;-58
2022/09/02 00:49:16;;;;;;;1.65;0.50;;;17.80;62.40;;;;;;5032180;28;20030;-58
2022/09/02 00:51:49;;;;;;;1.38;0.30;;;17.80;62.30;;;;;;5032067;28;20495;-58
2022/09/02 00:54:18;;;;;;;4.22;1.20;;;17.80;62.50;;;;;;5031838;28;20030;-58
2022/09/02 00:56:45;;;;;;;2.28;0.50;;;17.70;63.20;;;;;;5031817;28;20021;-58
2022/09/02 00:59:19;;;;;;;2.10;0.60;;;17.70;62.60;;;;;;5031756;28;20033;-58
2022/09/02 01:01:45;;;;;;;3.25;0.47;;;17.70;62.70;;;;;;5032042;28;20030;-58
2022/09/02 01:04:11;;;;;;;4.65;0.77;;;17.70;62.80;;;;;;5031872;28;20032;-58
2022/09/02 01:06:38;;;;;;;1.40;0.50;;;17.60;63.10;;;;;;5032508;28;20139;-58
2022/09/02 01:09:08;;;;;;;4.00;0.60;;;17.60;63.10;;;;;;5030390;28;20060;-58
2022/09/02 01:11:46;;;;;;;1.30;0.52;;;17.60;63.40;;;;;;5029306;28;20076;-58
2022/09/02 01:14:13;;;;;;;1.67;0.50;;;17.50;63.40;;;;;;5031537;28;20493;-58
2022/09/02 01:16:43;;;;;;;3.92;0.40;;;17.50;63.70;;;;;;5031626;28;20025;-57
2022/09/02 01:19:17;;;;;;;1.85;0.68;;;17.50;63.70;;;;;;5031364;28;20017;-57
2022/09/02 01:21:56;;;;;;;3.97;0.73;;;17.40;63.60;;;;;;5031557;28;20413;-58
2022/09/02 01:24:28;;;;;;;1.85;0.60;;;17.40;64.00;;;;;;5031458;28;20022;-58
2022/09/02 01:26:57;;;;;;;4.57;0.60;;;17.40;64.30;;;;;;5031538;28;20017;-58
2022/09/02 01:29:24;;;;;;;2.05;0.55;;;17.30;64.50;;;;;;5031389;28;20586;-59
2022/09/02 01:31:50;;;;;;;2.83;0.57;;;17.20;64.60;;;;;;5031359;28;20404;-58
2022/09/02 01:34:16;;;;;;;4.35;1.50;;;17.20;64.80;;;;;;5030946;28;20474;-58
2022/09/02 01:36:42;;;;;;;3.47;0.57;;;17.20;64.90;;;;;;5030036;28;20035;-57
2022/09/02 01:39:10;;;;;;;5.43;0.60;;;17.20;65.10;;;;;;5031048;28;20124;-58
2022/09/02 01:41:36;;;;;;;2.38;0.60;;;17.10;65.10;;;;;;5028962;28;20389;-58
2022/09/02 01:44:03;;;;;;;2.33;0.43;;;17.10;65.20;;;;;;5031112;28;20486;-58
2022/09/02 01:46:28;;;;;;;3.85;0.60;;;17.00;65.30;;;;;;5031081;28;20033;-58
2022/09/02 01:48:54;;;;;;;2.42;0.50;;;17.00;65.40;;;;;;5030952;28;20075;-58
2022/09/02 01:51:20;;;;;;;3.97;0.45;;;16.90;65.40;;;;;;5031177;28;20018;-58
2022/09/02 01:53:47;;;;;;;4.10;0.50;;;16.90;65.50;;;;;;5030809;28;20099;-58
2022/09/02 01:56:13;;;;;;;5.35;0.70;;;17.00;65.60;;;;;;5031008;28;20025;-58
2022/09/02 01:58:39;;;;;;;3.03;0.50;;;16.90;65.70;;;;;;5031257;28;20061;-58
2022/09/02 02:01:05;;;;;;;2.45;0.47;;;16.90;65.90;;;;;;5029705;28;20456;-57
2022/09/02 02:03:31;;;;;;;1.65;0.50;;;16.80;66.50;;;;;;5029800;28;20031;-58
2022/09/02 02:05:56;;;;;;;2.58;0.40;;;16.80;66.00;;;;;;5031155;28;20021;-58
2022/09/02 02:08:23;;;;;;;4.72;0.50;;;16.80;66.10;;;;;;5031108;28;20473;-58
2022/09/02 02:10:48;;;;;;;1.42;0.32;;;16.80;66.10;;;;;;5030797;28;20414;-58
2022/09/02 02:13:15;;;;;;;0.75;0.30;;;16.80;66.00;;;;;;5029611;28;20509;-58
2022/09/02 02:15:42;;;;;;;3.58;0.60;;;16.80;66.10;;;;;;5031053;28;20389;-59
2022/09/02 02:18:08;;;;;;;3.08;0.40;;;16.70;66.00;;;;;;5031026;28;20033;-58
2022/09/02 02:20:33;;;;;;;1.60;0.50;;;16.70;66.10;;;;;;5031030;28;20018;-57
2022/09/02 02:22:59;;;;;;;3.75;0.50;;;16.70;66.40;;;;;;5029556;28;20026;-58
2022/09/02 02:25:25;;;;;;;4.30;0.60;;;16.60;66.50;;;;;;5030609;28;20036;-58
2022/09/02 02:27:50;;;;;;;1.00;0.40;;;16.60;66.80;;;;;;5030490;28;20116;-58
2022/09/02 02:30:17;;;;;;;2.25;1.00;;;16.60;67.00;;;;;;5030548;28;20046;-58
2022/09/02 02:32:45;;;;;;;1.83;0.50;;;16.50;67.00;;;;;;5030687;28;20101;-58
2022/09/02 02:35:13;;;;;;;1.93;0.40;;;16.50;67.10;;;;;;5030323;28;20478;-58
2022/09/02 02:37:38;;;;;;;2.53;0.60;;;16.50;67.20;;;;;;5030548;28;20644;-58
2022/09/02 02:40:05;;;;;;;2.17;0.50;;;16.50;67.20;;;;;;5030384;28;20033;-58
2022/09/02 02:42:31;;;;;;;1.25;0.43;;;16.50;67.40;;;;;;5030637;28;20026;-58
2022/09/02 02:44:56;;;;;;;1.33;0.60;;;16.40;67.40;;;;;;5032524;28;20032;-57
2022/09/02 02:47:22;;;;;;;1.80;0.50;;;16.40;67.50;;;;;;5033041;28;20033;-58
2022/09/02 02:49:47;;;;;;;2.80;0.60;;;16.40;67.60;;;;;;5034630;28;20018;-57
2022/09/02 02:52:13;;;;;;;3.53;0.60;;;16.40;67.90;;;;;;5033738;28;20096;-57
2022/09/02 02:54:39;;;;;;;3.67;0.60;;;16.30;68.10;;;;;;5034588;28;20091;-58
2022/09/02 02:57:06;;;;;;;2.05;0.70;;;16.30;68.20;;;;;;5034227;28;20104;-58
2022/09/02 02:59:32;;;;;;;3.13;0.60;;;16.20;68.30;;;;;;5034119;28;20596;-58
2022/09/02 03:01:58;;;;;;;0.85;0.40;;;16.20;68.60;;;;;;5034118;28;20048;-58
2022/09/02 03:04:23;;;;;;;1.63;0.50;;;16.20;68.80;;;;;;5034201;28;20024;-57
2022/09/02 03:06:50;;;;;;;3.97;1.02;;;16.10;68.60;;;;;;5033940;28;20029;-57
2022/09/02 03:09:15;;;;;;;1.20;0.52;;;16.10;68.70;;;;;;5034100;28;20022;-57
2022/09/02 03:11:41;;;;;;;1.20;0.47;;;16.10;68.70;;;;;;5034048;28;20083;-58
2022/09/02 03:14:07;;;;;;;2.38;0.47;;;16.10;68.80;;;;;;5033971;28;20504;-57
2022/09/02 03:16:34;;;;;;;1.00;0.50;;;16.00;68.80;;;;;;5033484;28;20033;-58
2022/09/02 03:19:01;;;;;;;4.07;0.47;;;16.00;68.90;;;;;;5033729;28;20067;-58
2022/09/02 03:21:26;;;;;;;1.17;0.45;;;16.00;69.30;;;;;;5033862;28;20486;-57
2022/09/02 03:23:52;;;;;;;1.30;0.50;;;16.00;69.40;;;;;;5033637;28;20036;-58
2022/09/02 03:26:22;;;;;;;3.30;0.60;;;16.00;69.50;;;;;;5033541;28;20033;-58
2022/09/02 03:28:48;;;;;;;2.60;0.45;;;16.00;69.70;;;;;;5033803;28;20421;-58
2022/09/02 03:31:16;;;;;;;1.70;0.60;;;15.90;69.60;;;;;;5031790;28;20047;-57
2022/09/02 03:33:42;;;;;;;2.08;0.65;;;15.90;69.80;;;;;;5033514;28;20052;-57
2022/09/02 03:36:08;;;;;;;4.60;0.50;;;15.80;69.80;;;;;;5033694;28;20431;-57
2022/09/02 03:38:34;;;;;;;2.50;0.50;;;15.90;69.90;;;;;;5033258;28;20029;-58
2022/09/02 03:41:00;;;;;;;2.83;0.65;;;15.80;70.00;;;;;;5033506;28;20066;-58
2022/09/02 03:43:25;;;;;;;1.42;0.43;;;15.80;70.30;;;;;;5033331;28;20100;-57
2022/09/02 03:45:51;;;;;;;1.95;0.45;;;15.70;70.30;;;;;;5033140;28;20330;-58
2022/09/02 03:48:16;;;;;;;2.35;0.43;;;15.70;70.40;;;;;;5033478;28;20025;-57
2022/09/02 03:50:46;;;;;;;4.13;0.57;;;15.70;70.60;;;;;;5033077;28;20033;-57
2022/09/02 03:53:12;;;;;;;2.22;0.80;;;15.60;70.60;;;;;;5033143;28;20026;-58
2022/09/02 03:55:38;;;;;;;3.10;0.60;;;15.60;70.80;;;;;;5030551;28;20037;-58
2022/09/02 03:58:04;;;;;;;2.28;0.43;;;15.60;71.10;;;;;;5032936;28;20386;-58
2022/09/02 04:00:30;;;;;;;2.55;0.68;;;15.60;70.90;;;;;;5033166;28;20541;-58
2022/09/02 04:02:57;;;;;;;4.25;0.60;;;15.60;71.00;;;;;;5030617;28;20014;-58
2022/09/02 04:05:23;;;;;;;1.98;0.55;;;15.60;71.10;;;;;;5032861;28;20040;-57
2022/09/02 04:07:52;;;;;;;5.05;0.82;;;15.60;71.10;;;;;;5032674;28;20070;-58
2022/09/02 04:10:20;;;;;;;2.30;0.60;;;15.60;71.20;;;;;;5028175;28;20056;-57
2022/09/02 04:12:46;;;;;;;2.05;0.65;;;15.60;71.50;;;;;;5030888;28;20271;-58
2022/09/02 04:15:12;;;;;;;7.20;0.95;;;15.60;71.70;;;;;;5028123;28;20029;-57
2022/09/02 04:17:40;;;;;;;1.60;0.70;;;15.50;71.90;;;;;;5030737;28;20373;-57
2022/09/02 04:20:07;;;;;;;1.35;0.55;;;15.50;72.00;;;;;;5030249;28;20025;-57
2022/09/02 04:22:33;;;;;;;3.85;0.75;;;15.50;72.20;;;;;;5030555;28;20028;-58
2022/09/02 04:24:59;;;;;;;1.02;0.50;;;15.50;72.30;;;;;;5030438;28;20131;-58
2022/09/02 04:27:25;;;;;;;2.15;0.60;;;15.50;72.30;;;;;;5030631;28;20384;-58
2022/09/02 04:29:50;;;;;;;2.13;0.60;;;15.50;72.80;;;;;;5029827;28;20081;-58
2022/09/02 04:32:16;;;;;;;2.08;0.63;;;15.50;72.80;;;;;;5030317;28;20029;-57
2022/09/02 04:34:41;;;;;;;2.20;0.60;;;15.50;72.90;;;;;;5028943;28;20084;-58
2022/09/02 04:37:07;;;;;;;4.70;0.68;;;15.40;73.00;;;;;;5030146;28;20417;-57
2022/09/02 04:39:33;;;;;;;2.38;0.70;;;15.50;73.10;;;;;;5030014;28;20022;-58
2022/09/02 04:41:59;;;;;;;1.92;0.80;;;15.40;73.30;;;;;;5030001;28;20022;-57
2022/09/02 04:44:24;;;;;;;4.25;0.75;;;15.40;73.60;;;;;;5030060;28;20017;-58
2022/09/02 04:46:50;;;;;;;1.00;0.65;;;15.40;73.60;;;;;;5029924;28;20485;-58
2022/09/02 04:49:16;;;;;;;2.78;0.75;;;15.40;73.60;;;;;;5027609;28;20033;-58
2022/09/02 04:51:42;;;;;;;2.83;0.65;;;15.40;73.40;;;;;;5029798;28;20072;-58
2022/09/02 04:54:07;;;;;;;1.58;0.60;;;15.50;73.40;;;;;;5028264;28;20037;-57
2022/09/02 04:56:33;;;;;;;3.70;0.82;;;15.40;73.40;;;;;;5029659;28;20029;-58
2022/09/02 04:58:59;;;;;;;1.13;0.60;;;15.40;73.40;;;;;;5029624;28;20489;-58
2022/09/02 05:01:28;;;;;;;1.58;0.60;;;15.50;73.40;;;;;;5029148;28;20513;-57
2022/09/02 05:03:54;;;;;;;4.00;0.60;;;15.40;73.30;;;;;;5030257;28;20148;-57
2022/09/02 05:06:25;;;;;;;2.13;0.52;;;15.50;73.50;;;;;;5031929;28;20140;-58
2022/09/02 05:08:52;;;;;;;0.90;0.50;;;15.50;73.40;;;;;;5032715;28;20021;-58
2022/09/02 05:11:21;;;;;;;1.40;0.60;;;15.50;73.30;;;;;;5032979;28;20033;-57
2022/09/02 05:13:50;;;;;;;5.80;0.50;;;15.50;73.10;;;;;;5032785;28;20025;-58
2022/09/02 05:16:18;;;;;;;4.32;0.60;;;15.60;73.10;;;;;;5033299;28;20033;-58
2022/09/02 05:18:43;;;;;;;3.15;0.60;;;15.50;73.20;;;;;;5032339;28;20448;-57
2022/09/02 05:21:09;;;;;;;2.45;0.73;;;15.60;73.30;;;;;;5032776;28;20517;-57
2022/09/02 05:23:35;;;;;;;3.83;0.65;;;15.60;73.30;;;;;;5033076;28;20021;-58
2022/09/02 05:26:08;;;;;;;1.33;0.50;;;15.60;73.00;;;;;;5032687;28;20026;-57
2022/09/02 05:28:34;;;;;;;1.17;0.40;;;15.70;72.90;;;;;;5032866;28;20031;-58
2022/09/02 05:31:09;;;;;;;3.65;0.63;;;15.60;72.90;;;;;;5032450;28;20041;-57
2022/09/02 05:33:39;;;;;;;2.00;0.50;;;15.70;72.90;;;;;;5033058;28;20039;-58
2022/09/02 05:36:07;;;;;;;1.23;0.40;;;15.70;72.70;;;;;;5031853;28;20029;-57
2022/09/02 05:38:33;;;;;;;1.95;0.70;;;15.80;72.50;;;;;;5032776;28;20393;-58
2022/09/02 05:41:07;;;;;;;2.05;0.35;;;15.80;72.10;;;;;;5032290;28;20021;-58
2022/09/02 05:43:37;;;;;;;1.27;0.60;;;15.90;71.80;;;;;;5032484;28;20025;-58
2022/09/02 05:46:05;;;;;;;0.98;0.50;;;15.90;71.60;;;;;;5030554;28;20022;-57
2022/09/02 05:51:15;;;;;;;1.30;0.60;;;16.00;71.20;;;;;;5022468;28;20033;-58
2022/09/02 05:53:41;;;;;;;1.05;0.45;;;16.00;71.00;;;;;;5019179;28;20030;-57
2022/09/02 05:56:06;;;;;;;1.10;0.40;;;16.10;71.00;;;;;;5033540;28;20025;-57
2022/09/02 05:58:32;;;;;;;2.15;0.40;;;16.10;70.80;;;;;;5032074;28;20026;-57
2022/09/02 06:00:58;;;;;;;0.93;0.50;;;16.20;70.70;;;;;;5031958;28;20513;-57
2022/09/02 06:03:23;;;;;;;3.30;0.75;;;16.20;70.60;;;;;;5031572;28;20099;-58
2022/09/02 06:05:56;;;;;;;2.65;0.50;;;16.30;70.50;;;;;;5030400;28;20022;-57
2022/09/02 06:08:22;;;;;;;1.77;0.50;;;16.30;70.10;;;;;;5030263;28;20513;-58
2022/09/02 06:10:48;;;;;;;1.42;0.40;;;16.40;70.00;;;;;;5031172;28;20029;-58
2022/09/02 06:13:14;;;;;;;1.02;0.50;;;16.40;69.90;;;;;;5031140;28;20094;-58
2022/09/02 06:15:43;;;;;;;1.65;0.50;;;16.50;69.70;;;;;;5030739;28;20021;-57
2022/09/02 06:18:09;;;;;;;0.50;0.32;;;16.50;69.60;;;;;;5028371;28;20037;-56
2022/09/02 06:20:45;;;;;;;1.63;0.50;;;16.60;69.50;;;;;;5033307;28;20025;-57
2022/09/02 06:23:13;;;;;;;3.83;0.45;;;16.60;69.20;;;;;;5035879;28;20017;-58
2022/09/02 06:25:41;;;;;;;2.70;0.50;;;16.60;69.00;;;;;;5036232;28;20524;-57
2022/09/02 06:28:06;;;;;;;0.68;0.45;;;16.70;69.00;;;;;;5036144;28;20500;-57
2022/09/02 06:30:33;;;;;;;2.22;0.40;;;16.80;68.90;;;;;;5035804;28;20041;-58
2022/09/02 06:33:02;;;;;;;1.80;0.60;;;16.80;68.90;;;;;;5036092;28;20393;-57
2022/09/02 06:35:27;;;;;;;1.45;0.50;;;16.90;68.70;;;;;;5029577;28;20030;-58
2022/09/02 06:37:53;;;;;;;1.63;0.50;;;16.90;68.40;;;;;;5035089;28;20397;-58
2022/09/02 06:40:19;;;;;;;1.15;0.45;;;17.00;68.40;;;;;;5035821;28;20044;-57
2022/09/02 06:42:44;;;;;;;3.88;0.70;;;17.00;68.20;;;;;;5026476;28;20021;-58
2022/09/02 06:45:10;;;;;;;1.10;0.50;;;17.10;68.10;;;;;;5035822;28;20026;-58
2022/09/02 06:47:36;;;;;;;1.45;0.50;;;17.10;67.90;;;;;;5034142;28;20033;-58
2022/09/02 06:50:02;;;;;;;1.83;0.60;;;17.20;67.90;;;;;;5035480;28;20028;-58
2022/09/02 06:52:27;;;;;;;1.02;0.40;;;17.30;67.80;;;;;;5034237;28;20436;-58
2022/09/02 06:54:54;;;;;;;1.90;0.40;;;17.30;67.70;;;;;;5034722;28;20109;-57
2022/09/02 06:57:20;;;;;;;2.40;0.50;;;17.40;67.60;;;;;;5033532;28;20025;-59
2022/09/02 06:59:46;;;;;;;4.05;0.50;;;17.40;67.40;;;;;;5034197;28;20052;-57
2022/09/02 07:02:12;;;;;;;1.05;0.63;;;17.50;67.40;;;;;;5033652;28;20029;-58
2022/09/02 07:07:24;;;;;;;2.22;0.50;;;17.60;67.30;;;;;;5034668;28;20397;-58
2022/09/02 07:09:50;;;;;;;1.20;0.50;;;17.70;66.90;;;;;;5035397;28;20017;-58
2022/09/02 07:12:16;;;;;;;2.03;0.52;;;17.80;66.70;;;;;;5034003;28;20022;-58
2022/09/02 07:14:42;;;;;;;2.25;0.70;;;17.80;66.40;;;;;;5035651;28;20461;-58
2022/09/02 07:17:11;;;;;;;1.27;0.50;;;17.90;66.10;;;;;;5027372;28;20021;-58
2022/09/02 07:19:37;;;;;;;2.17;0.50;;;18.00;66.00;;;;;;5033736;28;20029;-58
2022/09/02 07:22:04;;;;;;;2.45;1.30;;;18.10;66.00;;;;;;5035418;28;20097;-57
2022/09/02 07:24:29;;;;;;;2.03;0.50;;;18.10;65.80;;;;;;5034775;28;20432;-58
2022/09/02 07:26:55;;;;;;;1.33;0.70;;;18.20;65.50;;;;;;5035179;28;20070;-58
2022/09/02 07:29:20;;;;;;;1.52;0.60;;;18.30;65.30;;;;;;5034540;28;20052;-57
2022/09/02 07:31:47;;;;;;;3.42;0.52;;;18.40;65.10;;;;;;5034635;28;20032;-58
2022/09/02 07:34:13;;;;;;;6.10;0.70;;;18.40;65.00;;;;;;5034721;28;20029;-58
2022/09/02 07:36:40;;;;;;;3.28;0.68;;;18.50;64.80;;;;;;5034820;28;20034;-58
2022/09/02 07:39:08;;;;;;;2.88;0.60;;;18.60;64.80;;;;;;5034323;28;20112;-58
2022/09/02 07:41:35;;;;;;;1.85;0.45;;;18.70;64.70;;;;;;5034961;28;20028;-58
2022/09/02 07:44:02;;;;;;;0.90;0.40;;;18.80;64.50;;;;;;5033121;28;20500;-58
2022/09/02 07:46:30;;;;;;;1.55;0.50;;;18.90;64.20;;;;;;5033642;28;20502;-58
2022/09/02 07:48:56;;;;;;;3.70;0.55;;;18.90;63.80;;;;;;5034480;28;20100;-58
2022/09/02 07:51:21;;;;;;;1.77;0.63;;;19.00;63.60;;;;;;5033219;28;20039;-58
2022/09/02 07:53:48;;;;;;;1.05;0.50;;;19.10;63.30;;;;;;5031839;28;20030;-58
2022/09/02 07:56:14;;;;;;;3.10;0.70;;;19.20;63.20;;;;;;5033138;28;20029;-58
2022/09/02 07:58:44;;;;;;;1.73;0.63;;;19.20;62.70;;;;;;5033390;28;20547;-58
2022/09/02 08:01:11;;;;;;;3.30;0.70;;;19.30;62.40;;;;;;5026847;28;20075;-58
2022/09/02 08:03:39;;;;;;;1.63;0.60;;;19.40;62.40;;;;;;5033269;28;20036;-58
2022/09/02 08:06:06;;;;;;;3.20;0.50;;;19.50;62.20;;;;;;5031515;28;20359;-58
2022/09/02 08:08:32;;;;;;;2.75;0.60;;;19.60;62.20;;;;;;5032710;28;20076;-57
2022/09/02 08:10:58;;;;;;;2.72;0.50;;;19.60;62.10;;;;;;5033017;28;20029;-58
2022/09/02 08:13:24;;;;;;;2.33;0.60;;;19.70;62.00;;;;;;5032930;28;20021;-58
2022/09/02 08:15:51;;;;;;;5.32;0.73;;;19.80;61.80;;;;;;5032783;28;20075;-58
2022/09/02 08:18:18;;;;;;;1.63;0.50;;;19.90;61.80;;;;;;5032801;28;20105;-58
2022/09/02 08:20:44;;;;;;;2.03;0.57;;;20.00;61.60;;;;;;5024401;28;20053;-58
2022/09/02 08:23:10;;;;;;;4.80;0.60;;;20.10;61.60;;;;;;5032551;28;20064;-57
2022/09/02 08:25:36;;;;;;;1.83;0.52;;;20.20;61.50;;;;;;5033125;28;20017;-58
2022/09/02 08:28:02;;;;;;;2.50;0.90;;;20.20;61.40;;;;;;5033274;28;20029;-57
2022/09/02 08:30:35;;;;;;;5.93;1.08;;;20.40;60.10;;;;;;5034125;28;20068;-58
2022/09/02 08:33:01;;;;;;;2.83;0.82;;;20.40;59.50;;;;;;5043110;28;20444;-58
2022/09/02 08:35:26;;;;;;;2.78;0.80;;;20.40;59.60;;;;;;5028049;28;20104;-58
2022/09/02 08:37:52;;;;;;;2.90;1.20;;;20.50;59.90;;;;;;5033722;28;20034;-57
2022/09/02 08:40:21;;;;;;;5.93;0.80;;;20.60;59.50;;;;;;5032602;28;20072;-58
2022/09/02 08:42:50;;;;;;;2.10;0.98;;;20.70;59.70;;;;;;5033121;28;20025;-58
2022/09/02 08:45:36;;;;;;;5.07;1.00;;;20.80;60.00;;;;;;5033543;28;20512;-58
2022/09/02 08:48:01;;;;;;;1.85;0.70;;;21.00;59.70;;;;;;5025694;28;20104;-58
2022/09/02 08:50:30;;;;;;;1.42;0.60;;;21.10;59.30;;;;;;5033641;28;20603;-58
2022/09/02 08:53:03;;;;;;;3.23;1.07;;;21.30;59.40;;;;;;5032360;28;20033;-58
2022/09/02 08:55:38;;;;;;;4.00;1.20;;;21.50;58.70;;;;;;5033432;28;20040;-58
2022/09/02 08:58:04;;;;;;;3.45;0.98;;;21.60;58.20;;;;;;5033465;28;20028;-58
2022/09/02 09:00:38;;;;;;;2.95;1.15;;;21.60;57.40;;;;;;5032535;28;20119;-58
2022/09/02 09:03:27;;;;;;;2.72;0.90;;;21.70;57.50;;;;;;5032163;28;20465;-57
2022/09/02 09:06:19;;;;;;;1.88;0.80;;;21.70;57.10;;;;;;5031620;28;20113;-59
2022/09/02 09:09:03;;;;;;;3.55;1.10;;;21.80;57.60;;;;;;5031278;28;20032;-58
2022/09/02 09:11:41;;;;;;;4.97;0.80;;;22.00;58.20;;;;;;5026388;28;20061;-58
2022/09/02 09:14:30;;;;;;;2.22;1.00;;;22.10;57.80;;;;;;5030569;28;20044;-58
2022/09/02 09:17:05;;;;;;;2.53;0.70;;;22.20;57.50;;;;;;5033021;28;20025;-58
2022/09/02 09:19:45;;;;;;;1.63;0.63;;;22.20;57.20;;;;;;5033230;28;20033;-58
2022/09/02 09:22:17;;;;;;;4.78;0.98;;;22.40;57.40;;;;;;5033090;28;20079;-58
2022/09/02 09:24:46;;;;;;;1.40;0.60;;;22.40;56.40;;;;;;5032868;28;20022;-58
2022/09/02 09:27:15;;;;;;;1.50;0.57;;;22.60;56.60;;;;;;5032981;28;20083;-58
2022/09/02 09:29:41;;;;;;;1.98;0.68;;;22.60;56.30;;;;;;5031614;28;20662;-58
2022/09/02 09:32:35;;;;;;;2.85;0.68;;;22.80;56.20;;;;;;5029082;28;20026;-58
2022/09/02 09:35:09;;;;;;;3.58;1.40;;;22.90;56.00;;;;;;5030596;28;20034;-58
2022/09/02 09:37:46;;;;;;;3.22;0.82;;;23.00;56.00;;;;;;5031280;28;20028;-58
2022/09/02 09:40:20;;;;;;;2.03;0.50;;;23.20;56.20;;;;;;5029802;28;20422;-59
2022/09/02 09:42:50;;;;;;;2.70;0.98;;;23.40;55.90;;;;;;5029069;28;20026;-58
2022/09/02 09:45:31;;;;;;;3.33;0.70;;;23.50;56.20;;;;;;5031022;28;20028;-58
2022/09/02 09:48:09;;;;;;;1.70;0.50;;;23.70;55.70;;;;;;5031684;28;20382;-58
2022/09/02 09:50:35;;;;;;;1.35;0.73;;;23.90;55.40;;;;;;5031234;28;20060;-58
2022/09/02 09:53:19;;;;;;;4.38;0.75;;;24.10;55.30;;;;;;5030409;28;20105;-58
2022/09/02 09:56:14;;;;;;;1.63;0.80;;;24.30;54.90;;;;;;5029498;28;20025;-58
2022/09/02 09:58:40;;;;;;;2.58;1.08;;;24.50;53.30;;;;;;5025294;28;20528;-58
2022/09/02 10:01:20;;;;;;;2.10;0.90;;;24.40;52.30;;;;;;5031730;28;20017;-58
2022/09/02 10:03:55;;;;;;;3.35;1.08;;;24.50;52.90;;;;;;5032435;28;20017;-58
2022/09/02 10:06:34;;;;;;;2.55;0.80;;;24.60;51.40;;;;;;5032414;28;20432;-58
2022/09/02 10:09:07;;;;;;;1.90;1.00;;;24.60;51.70;;;;;;5031370;28;20033;-58
2022/09/02 10:11:35;;;;;;;3.30;1.30;;;24.70;52.00;;;;;;5030619;28;20029;-58
2022/09/02 10:14:04;;;;;;;2.83;1.38;;;24.80;50.80;;;;;;5032037;28;20064;-58
2022/09/02 10:16:41;;;;;;;3.10;1.27;;;24.70;51.20;;;;;;5031778;28;20029;-58
2022/09/02 10:19:35;;;;;;;3.45;1.20;;;24.70;51.00;;;;;;5028889;28;20473;-58
2022/09/02 10:22:31;;;;;;;2.35;1.30;;;24.80;51.00;;;;;;5030349;28;20049;-58
2022/09/02 10:25:26;;;;;;;3.65;1.23;;;24.90;50.40;;;;;;5030901;28;20030;-58
2022/09/02 10:28:22;;;;;;;3.92;1.45;;;24.90;50.90;;;;;;5031095;28;20091;-58
2022/09/02 10:31:25;;;;;;;2.38;1.33;;;25.00;50.60;;;;;;5030353;28;20037;-58
2022/09/02 10:34:09;;;;;;;2.20;1.08;;;25.00;50.00;;;;;;5008904;28;20503;-58
2022/09/02 10:37:21;;;;;;;2.97;1.35;;;25.00;50.00;;;;;;5028852;28;20436;-58
2022/09/02 10:39:58;;;;;;;1.90;0.90;;;25.20;50.20;;;;;;5025046;28;20037;-58
2022/09/02 10:42:38;;;;;;;3.60;1.20;;;25.30;49.90;;;;;;5031637;28;20026;-58
2022/09/02 10:45:39;;;;;;;3.38;1.17;;;25.60;50.30;;;;;;5031796;28;20508;-58
2022/09/02 10:48:07;;;;;;;7.43;1.17;;;25.80;49.20;;;;;;5017100;28;20049;-58
2022/09/02 10:50:48;;;;;;;1.92;1.00;;;25.90;49.40;;;;;;5030668;28;20041;-58
2022/09/02 10:53:24;;;;;;;2.35;1.33;;;26.10;49.10;;;;;;5029950;28;20033;-58
2022/09/02 10:56:02;;;;;;;2.63;1.10;;;26.30;48.10;;;;;;5031705;28;20025;-58
2022/09/02 10:58:59;;;;;;;2.28;1.10;;;26.70;47.40;;;;;;5032081;28;20029;-58
2022/09/02 11:01:32;;;;;;;3.58;1.25;;;28.00;46.60;;;;;;5023381;28;20024;-58
2022/09/02 11:04:23;;;;;;;3.58;1.20;;;28.90;44.60;;;;;;5027091;28;20084;-59
2022/09/02 11:06:50;;;;;;;2.08;1.13;;;30.00;45.10;;;;;;5031454;28;20100;-58
2022/09/02 11:09:42;;;;;;;2.38;1.00;;;31.40;43.50;;;;;;5032703;28;20044;-59
2022/09/02 11:12:15;;;;;;;2.45;1.27;;;32.50;41.90;;;;;;5032285;28;20116;-58
2022/09/02 11:15:06;;;;;;;2.78;1.00;;;32.20;39.00;;;;;;5031188;28;20017;-59
2022/09/02 11:17:43;;;;;;;3.58;1.67;;;31.20;39.20;;;;;;5032989;28;20095;-58
2022/09/02 11:20:08;;;;;;;3.30;1.10;;;31.10;40.60;;;;;;5032840;28;20025;-58
2022/09/02 11:22:53;;;;;;;3.03;1.13;;;31.70;39.90;;;;;;5032786;28;20523;-58
2022/09/02 11:25:28;;;;;;;3.00;0.80;;;31.70;37.70;;;;;;5031156;28;20018;-59
2022/09/02 11:28:22;;;;;;;2.60;1.27;;;32.30;37.00;;;;;;5030340;28;20076;-59
2022/09/02 11:31:02;;;;;;;3.60;0.88;;;32.60;36.60;;;;;;5031469;28;20107;-59
2022/09/02 11:33:47;;;;;;;2.28;0.73;;;33.10;35.70;;;;;;5032408;28;20018;-59
2022/09/02 11:36:14;;;;;;;1.88;1.00;;;32.90;34.00;;;;;;5032137;28;20013;-59
2022/09/02 11:38:48;;;;;;;5.32;1.23;;;33.30;35.00;;;;;;5030687;28;20026;-58
2022/09/02 11:41:32;;;;;;;2.63;1.30;;;33.70;34.40;;;;;;5030002;28;20018;-58
2022/09/02 11:44:34;;;;;;;1.65;1.20;;;33.00;34.10;;;;;;5034532;28;20021;-59
2022/09/02 11:47:26;;;;;;;2.25;1.20;;;32.40;35.10;;;;;;5027649;28;20116;-58
2022/09/02 11:50:29;;;;;;;2.55;1.38;;;31.90;35.40;;;;;;5034707;28;20025;-59
2022/09/02 11:53:38;;;;;;;2.50;1.23;;;31.60;36.10;;;;;;5033917;28;20022;-59
2022/09/02 11:56:12;;;;;;;3.05;1.17;;;31.20;36.40;;;;;;5006372;28;20023;-59
2022/09/02 11:58:41;;;;;;;3.60;1.70;;;30.90;37.10;;;;;;5034154;28;20104;-58
2022/09/02 12:01:28;;;;;;;2.80;1.15;;;30.90;36.80;;;;;;5034657;28;20219;-58
2022/09/02 12:04:02;;;;;;;4.75;1.65;;;30.40;37.50;;;;;;5034463;28;20014;-58
2022/09/02 12:06:28;;;;;;;3.53;1.48;;;30.70;38.00;;;;;;5032926;28;20017;-58
2022/09/02 12:09:01;;;;;;;4.75;1.50;;;31.00;37.90;;;;;;5034213;28;20032;-59
2022/09/02 12:11:38;;;;;;;5.88;1.42;;;31.20;37.50;;;;;;5034511;28;20022;-58
2022/09/02 12:14:10;;;;;;;4.72;1.23;;;31.40;37.10;;;;;;5033838;28;20052;-59
2022/09/02 12:16:41;;;;;;;3.78;1.25;;;31.60;37.20;;;;;;5033368;28;20105;-58
2022/09/02 12:19:10;;;;;;;2.35;1.38;;;32.10;37.10;;;;;;5033696;28;20107;-59
2022/09/02 12:22:05;;;;;;;1.70;0.95;;;31.40;36.50;;;;;;5032950;28;20025;-58
2022/09/02 12:24:54;;;;;;;1.92;0.80;;;30.50;37.40;;;;;;5032401;28;20025;-59
2022/09/02 12:27:26;;;;;;;1.95;0.98;;;30.00;38.20;;;;;;5032711;28;20057;-58
2022/09/02 12:29:52;;;;;;;1.70;1.20;;;29.70;38.60;;;;;;5032456;28;20043;-59
2022/09/02 12:32:47;;;;;;;3.50;1.55;;;29.20;38.90;;;;;;5032977;28;20030;-58
2022/09/02 12:35:30;;;;;;;3.17;1.30;;;28.70;39.50;;;;;;5032568;28;20052;-59
2022/09/02 12:38:21;;;;;;;6.82;1.30;;;28.50;40.60;;;;;;5032411;28;20434;-59
2022/09/02 12:41:05;;;;;;;3.42;1.75;;;28.30;40.70;;;;;;5033753;28;20045;-58
2022/09/02 12:44:16;;;;;;;5.20;1.50;;;28.20;41.00;;;;;;5033569;28;20025;-58
2022/09/02 12:46:41;;;;;;;3.28;0.85;;;28.10;40.90;;;;;;5033913;28;20026;-58
2022/09/02 12:49:22;;;;;;;1.95;1.20;;;28.10;40.80;;;;;;5034079;28;20037;-58
2022/09/02 12:51:53;;;;;;;3.70;1.08;;;28.10;40.10;;;;;;5032176;28;20025;-58
2022/09/02 12:54:34;;;;;;;2.13;0.93;;;28.10;40.10;;;;;;5015891;28;20076;-59
2022/09/02 12:57:01;;;;;;;1.40;0.75;;;28.20;40.00;;;;;;5029729;28;20104;-58
2022/09/02 12:59:42;;;;;;;1.77;0.90;;;28.40;39.50;;;;;;5029844;28;20045;-58
2022/09/02 13:02:20;;;;;;;1.92;0.98;;;28.90;39.60;;;;;;5030288;28;20029;-58
2022/09/02 13:05:14;;;;;;;2.25;0.95;;;29.00;38.20;;;;;;5030303;28;20026;-59
2022/09/02 13:08:27;;;;;;;1.90;0.93;;;29.10;38.20;;;;;;5031126;28;20035;-59
2022/09/02 13:11:14;;;;;;;2.13;0.93;;;29.20;37.60;;;;;;5044197;28;20017;-58
2022/09/02 13:13:48;;;;;;;1.55;0.88;;;29.00;37.40;;;;;;5025473;28;20021;-59